الصفحة الرئيسية
METAR-TAF:

METAR-TAF

مطار :

Grant County Airport

سيلفر سيتي, نيومكسيكو, الولايات المتحدة

دائرة عرض: 32-38N, خط طول: 108-09W, ارتفاع: 1659 متر

مراقبة الطقس الحالي

تاريخ ووقت الإصدار 18 دقيقة قبل الساعة 21:15UTC
ريح 9 عقدة من الجنوب الشرقي تتزايد حتى 18 عقدة
درجة الحرارة 15°درجة مئوية
الرطوبة 29%
ضغط 1022 hPa
الرؤية: 16.1 كم
غيوم مفككة على ارتفاع 7000 قدم

METAR: KSVC 182115Z AUTO 14009G18KT 10SM BKN070 15/M03 A3017 RMK AO2 T01511035

زمن: 15:33 (21:33 UTC)


TAF: مفقودة

أرصاد الطقس والتوقعات من أكثر من 4000 مطار (تقارير الطقس للمطار METAR والتنبؤ بالطقس بالمطارTAF).

المحطات المتاحة هي النقط الصفراء والحمراء على الخريطة.

حرك المؤشر فوق النقطة لمعرفة اسم المحطة.

ثم انقر لمعرفة أرصاد وتوقعات الطقس.

لتغيير الخارطة: اضغط على الأزرار الخضراء مع رمز الصليب الأسود للتكبير. على الزر الأخضر مع شرطة للتصغير، أو على الأسهم الخضراء للخرائط المجاورة.


METAR-TAF: